Maersk Daesan — A8HN7 — position and weather

sailwx.info

Track history (hours):
 
Tides and Currents Weather Stations Pressure Air Temp Water Temp Dewpoint Dewpoint Depression Visibility Wind Speed Wind Dir Waves Ship Positions

Maersk Daesan

Last reported at 2018-Jul-07 05:38 UTC. Time now 2018-Jul-21 22:54 UTC.
Position N 01°32' E 103°01'.
Warning: this ship's position is 14 days out of date.

Length 294.1 m; beam 32.2 m; draft 13.5 m.

Type: Cargo ship. MMSI: 636090923.

Date/timePositionNaut miles runAvg speedWind from/ knotsBaromVisibWave heightAir tempDewpointWater temp
2018-Jul-07 05:38N 01°32' E 103°01'417.0
2018-Jul-07 05:24N 01°30' E 103°04'717.3
2018-Jul-07 04:59N 01°25' E 103°10'917.3
2018-Jul-07 04:29N 01°20' E 103°17'917.8
2018-Jul-07 03:59N 01°15' E 103°24'917.8
2018-Jul-07 03:30N 01°13' E 103°32'816.4
2018-Jul-07 03:00N 01°10' E 103°40'613.0
2018-Jul-07 02:30N 01°10' E 103°47'611.7
2018-Jul-07 02:00N 01°12' E 103°52'613.2
2018-Jul-07 01:30N 01°15' E 103°58'815.2
2018-Jul-07 01:00N 01°16' E 104°06'815.0
2018-Jul-07 00:29N 01°17' E 104°13'714.1
2018-Jul-06 23:59N 01°20' E 104°20'918.1
2018-Jul-06 23:30N 01°25' E 104°26'  
2018-Jun-29 13:19N 22°28' E 119°51'514.1
2018-Jun-29 13:00N 22°28' E 119°56'714.6
2018-Jun-29 12:30N 22°30' E 120°04'714.8
2018-Jun-29 12:00N 22°32' E 120°11'612.4
2018-Jun-29 11:30N 22°33' E 120°18'1 2.7
2018-Jun-29 10:59N 22°33' E 120°20'0 0.0
2018-Jun-29 10:27N 22°33' E 120°20'0 0.0
2018-Jun-29 09:09N 22°33' E 120°20'0 0.0
2018-Jun-29 07:33N 22°33' E 120°20'0 0.0
2018-Jun-29 07:27N 22°33' E 120°20'0 0.0
2018-Jun-29 06:57N 22°33' E 120°20'0 0.0
2018-Jun-29 06:27N 22°33' E 120°20'0 0.0
2018-Jun-29 05:51N 22°33' E 120°20'0 0.0
2018-Jun-29 05:21N 22°33' E 120°20'0 0.0
2018-Jun-29 04:57N 22°33' E 120°20'0 0.0
2018-Jun-29 04:27N 22°33' E 120°20'0 0.0
2018-Jun-29 03:39N 22°33' E 120°20'0 0.0
2018-Jun-29 03:09N 22°33' E 120°20'0 0.0
2018-Jun-29 02:57N 22°33' E 120°20'0 0.0
2018-Jun-29 02:27N 22°33' E 120°20'0 0.0
2018-Jun-29 01:57N 22°33' E 120°20'0 0.0
2018-Jun-29 01:28N 22°33' E 120°20'1 2.3
2018-Jun-29 01:00N 22°33' E 120°18'3 6.7
2018-Jun-29 00:30N 22°32' E 120°15'1 2.5
2018-Jun-28 23:59N 22°32' E 120°14'3 5.5
2018-Jun-28 23:30N 22°31' E 120°11'610.8
2018-Jun-28 23:00N 22°30' E 120°05'613.2
2018-Jun-28 22:30N 22°29' E 119°58'713.0
2018-Jun-28 21:58N 22°28' E 119°51'  
Track history (hours):
 
Tides and Currents Weather Stations Pressure Air Temp Water Temp Dewpoint Dewpoint Depression Visibility Wind Speed Wind Dir Waves Ship Positions

Maersk Daesan

Last reported at 2018-Jul-07 05:38 UTC. Time now 2018-Jul-21 22:54 UTC.
Position N 01°32' E 103°01'.
Warning: this ship's position is 14 days out of date.

Length 294.1 m; beam 32.2 m; draft 13.5 m.

Type: Cargo ship. MMSI: 636090923.

Date/timePositionNaut miles runAvg speedWind from/ knotsBaromVisibWave heightAir tempDewpointWater temp
2018-Jul-07 05:38N 01°32' E 103°01'417.0
2018-Jul-07 05:24N 01°30' E 103°04'717.3
2018-Jul-07 04:59N 01°25' E 103°10'917.3
2018-Jul-07 04:29N 01°20' E 103°17'917.8
2018-Jul-07 03:59N 01°15' E 103°24'917.8
2018-Jul-07 03:30N 01°13' E 103°32'816.4
2018-Jul-07 03:00N 01°10' E 103°40'613.0
2018-Jul-07 02:30N 01°10' E 103°47'611.7
2018-Jul-07 02:00N 01°12' E 103°52'613.2
2018-Jul-07 01:30N 01°15' E 103°58'815.2
2018-Jul-07 01:00N 01°16' E 104°06'815.0
2018-Jul-07 00:29N 01°17' E 104°13'714.1
2018-Jul-06 23:59N 01°20' E 104°20'918.1
2018-Jul-06 23:30N 01°25' E 104°26'  
2018-Jun-29 13:19N 22°28' E 119°51'514.1
2018-Jun-29 13:00N 22°28' E 119°56'714.6
2018-Jun-29 12:30N 22°30' E 120°04'714.8
2018-Jun-29 12:00N 22°32' E 120°11'612.4
2018-Jun-29 11:30N 22°33' E 120°18'1 2.7
2018-Jun-29 10:59N 22°33' E 120°20'0 0.0
2018-Jun-29 10:27N 22°33' E 120°20'0 0.0
2018-Jun-29 09:09N 22°33' E 120°20'0 0.0
2018-Jun-29 07:33N 22°33' E 120°20'0 0.0
2018-Jun-29 07:27N 22°33' E 120°20'0 0.0
2018-Jun-29 06:57N 22°33' E 120°20'0 0.0
2018-Jun-29 06:27N 22°33' E 120°20'0 0.0
2018-Jun-29 05:51N 22°33' E 120°20'0 0.0
2018-Jun-29 05:21N 22°33' E 120°20'0 0.0
2018-Jun-29 04:57N 22°33' E 120°20'0 0.0
2018-Jun-29 04:27N 22°33' E 120°20'0 0.0
2018-Jun-29 03:39N 22°33' E 120°20'0 0.0
2018-Jun-29 03:09N 22°33' E 120°20'0 0.0
2018-Jun-29 02:57N 22°33' E 120°20'0 0.0
2018-Jun-29 02:27N 22°33' E 120°20'0 0.0
2018-Jun-29 01:57N 22°33' E 120°20'0 0.0
2018-Jun-29 01:28N 22°33' E 120°20'1 2.3
2018-Jun-29 01:00N 22°33' E 120°18'3 6.7
2018-Jun-29 00:30N 22°32' E 120°15'1 2.5
2018-Jun-28 23:59N 22°32' E 120°14'3 5.5
2018-Jun-28 23:30N 22°31' E 120°11'610.8
2018-Jun-28 23:00N 22°30' E 120°05'613.2
2018-Jun-28 22:30N 22°29' E 119°58'713.0
2018-Jun-28 21:58N 22°28' E 119°51'  

Dump ship's entire track history